Phu Lien, Viet Nam

7:54 PM ICT on October 24, 2014 (GMT +0700)
Noibai International | Change Station
CLOSE
Current Station
Airport
Location: Ha Noi,
Elevation: 36 ft
Nearby Weather Stations

Elev 36 ft 21.22 °N, 105.81 °E | Updated 24 minutes ago

Mostly Cloudy
Mostly Cloudy
73 °F
Feels Like 73 °F
N
5
Wind Variable Wind from West

Today
High -- | Low -- °F
--% Chance of Precip.
Yesterday
High -- | Low -- °F
Precip. -- in
5:52 AM 5:23 PM
New Moon, 0% visible
Pressure 29.98 in
Visibility 1.6 miles
Clouds Few 2300 ft
Mostly Cloudy 6000 ft
Dew Point 72 °F
Humidity 94%
Rainfall 0.00 in
Snow Depth Not available.
UV 0 out of 12
Pollen Not available.
Air Quality Not available.
Flu Activity Not available.
METAR VVNB 241230Z 27004KT 2600 BR FEW023 BKN060 23/22 Q1015 NOSIG

More Conditions Fewer Conditions

Pressure 29.98 in
Visibility 1.6 miles
Clouds Few 2300 ft
Mostly Cloudy 6000 ft
Dew Point 72 °F
Humidity 94%
Rainfall 0.00 in
Snow Depth Not available.
UV 0 out of 12
Pollen Not available.
Air Quality Not available.
Flu Activity Not available.
METAR VVNB 241230Z 27004KT 2600 BR FEW023 BKN060 23/22 Q1015 NOSIG

More Conditions Fewer Conditions

10-Day Weather Forecast

Almanac

Astronomy

Oct. 24, 2014 Rise Set
Actual Time 5:52 AM ICT 5:23 PM ICT
Civil Twilight 5:29 AM ICT 5:45 PM ICT
Nautical Twilight 5:03 AM ICT 6:11 PM ICT
Astronomical Twilight 4:37 AM ICT 6:37 PM ICT
Moon 5:58 AM ICT 5:44 PM ICT
Length of Visible Light 12h 16m
Length of Day
11h 31m
Tomorrow will be 1m 5s shorter.
New Moon, 0% of the Moon is Illuminated
Today
New Moon
Oct 30
First Quarter
Nov 6
Full
Nov 14
Last Quarter
Nov 22
New

Yesterday's Extremes

Country Highs Country Lows

Community

WunderPhotos

Upload Photos

1,764,544 photos uploaded!

Nearby

Snow Depth

Not available.

Earthquake Activity

City Distance Mag. Time & Date
No recent earthquake activity has been reported nearby.
Minimum magnitude displayed is 2.5.

Coastal Water Temperatures

Place Temperature
No Stations Reporting

Nearby Weather Stations